Time;durP1;ratioP1;P1;durP2;ratioP2;P2;SDS_P1;SDS_P2;PMS_P1;PMS_P2;Temp;Humidity;BMP_temperature;BMP_pressure;BME280_temperature;BME280_humidity;BME280_pressure;Samples;Min_cycle;Max_cycle;Signal;HPM_P1;HPM_P2
2022/04/11 00:01:08;;;;;;;;;;;;;;;2.26;83.64;99520.44;8390047;28;19978;-72
2022/04/11 00:05:09;;;;;;;;;;;;;;;2.09;83.90;99515.94;8398042;28;20016;-72
2022/04/11 00:09:10;;;;;;;;;;;;;;;1.89;84.12;99523.63;8392458;28;20327;-72
2022/04/11 00:13:11;;;;;;;;;;;;;;;1.81;84.60;99518.69;8383614;28;20085;-71
2022/04/11 00:17:11;;;;;;;;;;;;;;;1.73;84.95;99516.44;8378676;28;19971;-71
2022/04/11 00:21:12;;;;;;;;;;;;;;;1.67;85.16;99525.38;8387756;28;20022;-71
2022/04/11 00:25:13;;;;;;;;;;;;;;;1.60;84.92;99516.72;8392362;28;19967;-72
2022/04/11 00:29:14;;;;;;;;;;;;;;;1.49;85.66;99525.56;8379182;28;20103;-72
2022/04/11 00:33:15;;;;;;;;;;;;;;;1.46;85.46;99515.41;8385259;28;19983;-71
2022/04/11 00:37:16;;;;;;;;;;;;;;;1.39;85.27;99528.06;8389515;28;20425;-71
2022/04/11 00:41:17;;;;;;;;;;;;;;;1.39;85.51;99528.06;8378510;28;20524;-72
2022/04/11 00:45:17;;;;;;;;;;;;;;;1.37;84.96;99527.50;8380934;28;20078;-72
2022/04/11 00:49:18;;;;;;;;;;;;;;;1.38;85.61;99529.09;8393425;28;19975;-72
2022/04/11 00:53:19;;;;;;;;;;;;;;;1.33;85.64;99536.97;8389046;28;19988;-72
2022/04/11 00:57:20;;;;;;;;;;;;;;;1.21;85.65;99535.19;8367581;28;20026;-71
2022/04/11 01:01:21;;;;;;;;;;;;;;;1.10;85.73;99544.03;8384926;28;20077;-72
2022/04/11 01:05:22;;;;;;;;;;;;;;;1.04;86.39;99544.97;8382981;28;19978;-71
2022/04/11 01:09:22;;;;;;;;;;;;;;;1.12;86.56;99547.25;8395560;28;20072;-71
2022/04/11 01:13:23;;;;;;;;;;;;;;;1.02;86.34;99547.03;8385319;28;19987;-71
2022/04/11 01:17:33;;;;;;;;;;;;;;;0.92;86.87;99562.78;8394232;28;20108;-72
2022/04/11 01:21:34;;;;;;;;;;;;;;;0.86;86.77;99558.41;8385284;28;19971;-72
2022/04/11 01:25:34;;;;;;;;;;;;;;;0.78;87.17;99556.13;8392905;28;19978;-72
2022/04/11 01:29:35;;;;;;;;;;;;;;;0.78;87.15;99564.09;8397292;28;20040;-74
2022/04/11 01:33:36;;;;;;;;;;;;;;;0.85;87.05;99562.09;8399439;28;19983;-74
2022/04/11 01:37:37;;;;;;;;;;;;;;;0.89;86.29;99563.28;8398481;28;19982;-74
2022/04/11 01:41:37;;;;;;;;;;;;;;;0.94;86.66;99576.69;8398745;28;20338;-74
2022/04/11 01:45:38;;;;;;;;;;;;;;;1.02;86.50;99568.31;8396157;28;19971;-74
2022/04/11 01:49:39;;;;;;;;;;;;;;;0.91;86.53;99577.13;8395983;28;20010;-74
2022/04/11 01:53:40;;;;;;;;;;;;;;;0.84;86.18;99581.78;8396668;28;20012;-74
2022/04/11 01:57:41;;;;;;;;;;;;;;;0.87;86.66;99581.31;8394535;28;19974;-74
2022/04/11 02:01:46;;;;;;;;;;;;;;;0.84;86.41;99581.78;8377044;28;19972;-74
2022/04/11 02:05:47;;;;;;;;;;;;;;;0.78;87.39;99577.41;8397456;28;19968;-74
2022/04/11 02:09:48;;;;;;;;;;;;;;;0.72;87.39;99583.66;8406661;28;19995;-74
2022/04/11 02:13:48;;;;;;;;;;;;;;;0.69;87.86;99584.09;8390180;28;19987;-74
2022/04/11 02:17:52;;;;;;;;;;;;;;;0.62;88.12;99567.47;8392081;28;19967;-74
2022/04/11 02:21:53;;;;;;;;;;;;;;;0.61;88.46;99576.50;8386445;28;19974;-75
2022/04/11 02:25:54;;;;;;;;;;;;;;;0.54;88.11;99581.09;8390910;28;19967;-71
2022/04/11 02:29:54;;;;;;;;;;;;;;;0.48;88.25;99587.38;8387550;28;20002;-72
2022/04/11 02:33:55;;;;;;;;;;;;;;;0.50;88.98;99574.63;8395332;28;19983;-71
2022/04/11 02:37:56;;;;;;;;;;;;;;;0.40;88.53;99576.03;8378757;28;20017;-71
2022/04/11 02:41:57;;;;;;;;;;;;;;;0.29;88.18;99584.81;8395788;28;19982;-71
2022/04/11 02:45:57;;;;;;;;;;;;;;;0.20;88.42;99580.88;8392230;28;20016;-72
2022/04/11 02:49:58;;;;;;;;;;;;;;;0.14;88.28;99576.47;8395793;28;20013;-71
2022/04/11 02:54:01;;;;;;;;;;;;;;;0.12;88.29;99578.53;8388594;28;20036;-72
2022/04/11 02:58:02;;;;;;;;;;;;;;;0.22;87.91;99584.09;8391382;28;19975;-72
2022/04/11 03:02:03;;;;;;;;;;;;;;;0.36;87.57;99574.06;8361404;28;19971;-71
2022/04/11 03:06:04;;;;;;;;;;;;;;;0.43;87.66;99586.19;8384641;28;19971;-71
2022/04/11 03:10:05;;;;;;;;;;;;;;;0.59;87.57;99578.56;8401791;28;19986;-71
2022/04/11 03:14:06;;;;;;;;;;;;;;;0.58;88.24;99582.28;8387991;28;19981;-71
2022/04/11 03:18:07;;;;;;;;;;;;;;;0.61;88.96;99581.81;8385206;28;19996;-71
2022/04/11 03:22:09;;;;;;;;;;;;;;;0.73;89.44;99574.63;8381782;28;19971;-71
2022/04/11 03:26:10;;;;;;;;;;;;;;;0.87;88.62;99583.97;8390490;28;20010;-71
2022/04/11 03:30:11;;;;;;;;;;;;;;;0.97;87.45;99586.84;8389692;28;20107;-72
2022/04/11 03:34:11;;;;;;;;;;;;;;;1.09;87.32;99590.28;8390019;28;19971;-72
2022/04/11 03:38:12;;;;;;;;;;;;;;;1.13;87.91;99591.44;8392802;28;20012;-71
2022/04/11 03:42:13;;;;;;;;;;;;;;;1.17;88.42;99592.56;8394615;28;19990;-72
2022/04/11 03:46:14;;;;;;;;;;;;;;;1.27;88.49;99586.63;8337695;28;19979;-71
2022/04/11 03:50:14;;;;;;;;;;;;;;;1.33;89.00;99595.53;8376644;28;20501;-72
2022/04/11 03:54:15;;;;;;;;;;;;;;;1.34;89.20;99599.81;8428727;28;19970;-71
2022/04/11 03:58:16;;;;;;;;;;;;;;;1.38;89.03;99598.28;8403341;28;19971;-72
2022/04/11 04:02:17;;;;;;;;;;;;;;;1.49;89.68;99597.44;8394096;28;20020;-71
2022/04/11 04:06:18;;;;;;;;;;;;;;;1.49;89.03;99605.41;8395837;28;20007;-71
2022/04/11 04:10:18;;;;;;;;;;;;;;;1.45;89.63;99618.41;8398427;28;20043;-71
2022/04/11 04:14:19;;;;;;;;;;;;;;;1.50;89.99;99623.00;8433825;28;20449;-73
2022/04/11 04:18:20;;;;;;;;;;;;;;;1.48;89.90;99630.44;8394616;28;20003;-74
2022/04/11 04:22:21;;;;;;;;;;;;;;;1.45;90.51;99625.56;8394327;28;19975;-75
2022/04/11 04:26:22;;;;;;;;;;;;;;;1.45;90.46;99636.22;8408339;28;19975;-74
2022/04/11 04:30:22;;;;;;;;;;;;;;;1.51;90.16;99635.28;8396000;28;20397;-74
2022/04/11 04:34:25;;;;;;;;;;;;;;;1.52;90.00;99631.56;8394065;28;19997;-74
2022/04/11 04:38:27;;;;;;;;;;;;;;;1.58;90.15;99641.28;8394079;28;19975;-74
2022/04/11 04:42:28;;;;;;;;;;;;;;;1.61;90.10;99640.81;8400572;28;20740;-75
2022/04/11 04:46:28;;;;;;;;;;;;;;;1.78;90.01;99647.00;8398480;28;20267;-75
2022/04/11 04:50:29;;;;;;;;;;;;;;;1.78;89.62;99652.31;8400425;28;19995;-74
2022/04/11 04:54:30;;;;;;;;;;;;;;;1.81;89.76;99654.50;8400144;28;20434;-75
2022/04/11 04:58:31;;;;;;;;;;;;;;;1.95;89.15;99653.16;8400157;28;19982;-75
2022/04/11 05:02:38;;;;;;;;;;;;;;;2.02;88.69;99659.13;8400112;28;20414;-75
2022/04/11 05:06:39;;;;;;;;;;;;;;;2.18;88.02;99651.41;8380869;28;20010;-74
2022/04/11 05:10:40;;;;;;;;;;;;;;;2.18;88.56;99646.06;8399974;28;20057;-74
2022/04/11 05:14:41;;;;;;;;;;;;;;;2.20;88.35;99659.97;8399537;28;19972;-75
2022/04/11 05:18:41;;;;;;;;;;;;;;;2.29;88.10;99653.19;8399482;28;20452;-74
2022/04/11 05:22:42;;;;;;;;;;;;;;;2.40;87.69;99655.78;8399671;28;20078;-74
2022/04/11 05:26:43;;;;;;;;;;;;;;;2.52;87.28;99671.72;8399445;28;20376;-74
2022/04/11 05:30:44;;;;;;;;;;;;;;;2.62;86.67;99669.22;8398979;28;20045;-74
2022/04/11 05:34:44;;;;;;;;;;;;;;;2.78;85.64;99668.41;8399323;28;19975;-75
2022/04/11 05:38:45;;;;;;;;;;;;;;;2.79;85.63;99664.69;8398034;28;20078;-74
2022/04/11 05:42:46;;;;;;;;;;;;;;;2.91;84.79;99668.03;8398734;28;20014;-74
2022/04/11 05:46:52;;;;;;;;;;;;;;;2.96;84.61;99665.44;8396587;28;20041;-74
2022/04/11 05:50:53;;;;;;;;;;;;;;;3.09;84.03;99663.47;8346470;28;19987;-74
2022/04/11 05:54:54;;;;;;;;;;;;;;;3.11;83.66;99666.72;8398782;28;20435;-74
2022/04/11 05:58:54;;;;;;;;;;;;;;;3.18;83.30;99675.34;8398442;28;19975;-74
2022/04/11 06:02:55;;;;;;;;;;;;;;;3.27;83.20;99676.56;8398445;28;20570;-71
2022/04/11 06:06:56;;;;;;;;;;;;;;;3.36;82.58;99675.06;8398529;28;20015;-72
2022/04/11 06:10:57;;;;;;;;;;;;;;;3.40;82.18;99670.84;8378718;28;20021;-71
2022/04/11 06:14:58;;;;;;;;;;;;;;;3.47;81.59;99679.47;8398724;28;20044;-72
2022/04/11 06:18:59;;;;;;;;;;;;;;;3.59;81.01;99674.84;8397909;28;19982;-72
2022/04/11 06:23:00;;;;;;;;;;;;;;;3.70;81.22;99681.88;8397552;28;20011;-72
2022/04/11 06:27:01;;;;;;;;;;;;;;;3.82;80.69;99685.22;8397997;28;19975;-72
2022/04/11 06:31:02;;;;;;;;;;;;;;;3.94;79.24;99690.44;8397186;28;20064;-72
2022/04/11 06:35:03;;;;;;;;;;;;;;;3.96;79.36;99690.19;8397046;28;19986;-72
2022/04/11 06:39:04;;;;;;;;;;;;;;;4.17;78.74;99681.34;8397353;28;20437;-72
2022/04/11 06:43:04;;;;;;;;;;;;;;;4.29;78.70;99689.97;8396693;28;19975;-71
2022/04/11 06:47:06;;;;;;;;;;;;;;;4.44;78.47;99698.13;8396894;28;20323;-72
2022/04/11 06:51:07;;;;;;;;;;;;;;;4.59;76.73;99684.91;8396614;28;20097;-72
2022/04/11 06:55:07;;;;;;;;;;;;;;;4.53;76.55;99693.16;8396497;28;19975;-72
2022/04/11 06:59:08;;;;;;;;;;;;;;;4.44;77.20;99703.50;8394263;28;20069;-72
2022/04/11 07:03:09;;;;;;;;;;;;;;;4.50;76.09;99697.13;8396578;28;19975;-72
2022/04/11 07:07:10;;;;;;;;;;;;;;;4.43;76.51;99691.19;8396256;28;19982;-71
2022/04/11 07:11:10;;;;;;;;;;;;;;;4.52;77.32;99684.31;8396123;28;20078;-71
2022/04/11 07:15:11;;;;;;;;;;;;;;;4.68;76.04;99694.09;8377290;28;19975;-71
2022/04/11 07:19:12;;;;;;;;;;;;;;;4.81;75.48;99697.41;8395845;28;20434;-72
2022/04/11 07:23:13;;;;;;;;;;;;;;;4.98;74.06;99698.03;8395546;28;20431;-72
2022/04/11 07:27:13;;;;;;;;;;;;;;;5.19;73.38;99694.41;8395933;28;20327;-72
2022/04/11 07:31:15;;;;;;;;;;;;;;;5.56;72.61;99693.53;8395332;28;19997;-72
2022/04/11 07:35:16;;;;;;;;;;;;;;;5.82;72.18;99697.91;8395178;28;19982;-72
2022/04/11 07:39:18;;;;;;;;;;;;;;;6.01;69.78;99709.81;8409719;28;19982;-72
2022/04/11 07:43:23;;;;;;;;;;;;;;;5.97;68.69;99684.63;8395058;28;19975;-74
2022/04/11 07:47:26;;;;;;;;;;;;;;;6.01;68.56;99707.16;8394951;28;20160;-75
2022/04/11 07:51:27;;;;;;;;;;;;;;;6.04;68.53;99711.97;8376221;28;19991;-75
2022/04/11 07:55:28;;;;;;;;;;;;;;;6.04;68.24;99709.28;8395292;28;20080;-75
2022/04/11 07:59:29;;;;;;;;;;;;;;;6.36;68.47;99704.53;8395596;28;20021;-74
2022/04/11 08:03:30;;;;;;;;;;;;;;;6.64;67.24;99705.09;8400298;28;19971;-74
2022/04/11 08:07:32;;;;;;;;;;;;;;;6.99;66.17;99707.75;8397453;28;20339;-75
2022/04/11 08:11:33;;;;;;;;;;;;;;;6.95;64.97;99712.06;8394766;28;20041;-72
2022/04/11 08:15:34;;;;;;;;;;;;;;;7.13;65.33;99714.19;8400260;28;20056;-72
2022/04/11 08:19:35;;;;;;;;;;;;;;;7.03;62.86;99718.78;8405686;28;19982;-73
2022/04/11 08:23:35;;;;;;;;;;;;;;;7.00;63.50;99713.94;8419935;28;20091;-72
2022/04/11 08:27:36;;;;;;;;;;;;;;;7.10;62.89;99720.09;8405394;28;19985;-73
2022/04/11 08:31:37;;;;;;;;;;;;;;;7.05;61.98;99722.78;8437011;28;20141;-72
2022/04/11 08:35:38;;;;;;;;;;;;;;;7.04;61.96;99723.84;8405223;28;20396;-73
2022/04/11 08:39:39;;;;;;;;;;;;;;;7.21;61.09;99721.69;8405023;28;19982;-72
2022/04/11 08:43:39;;;;;;;;;;;;;;;7.33;60.17;99723.28;8405271;28;20006;-72
2022/04/11 08:47:40;;;;;;;;;;;;;;;7.32;58.00;99729.72;8403781;28;20427;-73
2022/04/11 08:51:41;;;;;;;;;;;;;;;7.18;58.26;99733.00;8404913;28;19991;-72
2022/04/11 08:55:42;;;;;;;;;;;;;;;7.03;59.08;99735.66;8403975;28;19975;-73
2022/04/11 08:59:43;;;;;;;;;;;;;;;7.02;58.98;99739.47;8404718;28;20092;-75
2022/04/11 09:03:43;;;;;;;;;;;;;;;7.14;58.82;99742.66;8404953;28;19975;-74
2022/04/11 09:07:52;;;;;;;;;;;;;;;7.55;58.20;99737.22;8386172;28;19977;-75
2022/04/11 09:11:55;;;;;;;;;;;;;;;7.86;54.86;99736.03;8385931;28;20082;-74
2022/04/11 09:15:56;;;;;;;;;;;;;;;7.88;55.40;99725.78;8369372;28;19975;-74
2022/04/11 09:20:25;;;;;;;;;;;;;;;7.65;52.40;99731.81;8371497;28;20066;-74
2022/04/11 09:24:26;;;;;;;;;;;;;;;7.62;53.67;99737.72;8350536;28;19979;-74
2022/04/11 09:28:27;;;;;;;;;;;;;;;7.60;51.76;99739.88;8328607;28;20394;-75
2022/04/11 09:32:28;;;;;;;;;;;;;;;7.64;53.54;99735.56;8328873;28;19992;-75
2022/04/11 09:36:45;;;;;;;;;;;;;;;7.70;52.42;99739.84;8328961;28;19976;-74
2022/04/11 09:40:49;;;;;;;;;;;;;;;7.87;53.87;99740.31;8328789;28;20400;-75
2022/04/11 09:44:50;;;;;;;;;;;;;;;8.02;50.37;99732.19;8328512;28;19976;-75
2022/04/11 09:48:53;;;;;;;;;;;;;;;7.96;50.43;99738.66;8325991;28;20500;-75
2022/04/11 09:52:59;;;;;;;;;;;;;;;8.10;50.69;99721.91;8328112;28;19998;-75
2022/04/11 09:57:01;;;;;;;;;;;;;;;8.03;46.30;99733.81;8325774;28;19971;-75
2022/04/11 10:01:02;;;;;;;;;;;;;;;8.36;47.15;99726.09;8356086;28;20074;-74
2022/04/11 10:05:04;;;;;;;;;;;;;;;8.57;48.36;99722.19;8364804;28;19979;-74
2022/04/11 10:09:05;;;;;;;;;;;;;;;8.58;47.51;99721.09;8364632;28;20462;-75
2022/04/11 10:13:07;;;;;;;;;;;;;;;8.69;48.20;99719.13;8391039;28;19990;-74
2022/04/11 10:17:07;;;;;;;;;;;;;;;8.58;47.07;99713.03;8395937;28;19975;-75
2022/04/11 10:21:09;;;;;;;;;;;;;;;8.39;47.58;99710.22;8397569;28;20013;-74
2022/04/11 10:25:09;;;;;;;;;;;;;;;8.76;47.51;99704.28;8397326;28;19975;-75
2022/04/11 10:29:43;;;;;;;;;;;;;;;9.38;46.44;99705.31;8396240;28;20350;-75
2022/04/11 10:33:50;;;;;;;;;;;;;;;9.81;45.70;99702.66;8327163;28;19991;-75
2022/04/11 10:37:51;;;;;;;;;;;;;;;9.32;44.57;99695.66;8326569;28;19976;-74
2022/04/11 10:41:58;;;;;;;;;;;;;;;8.95;44.36;99701.69;8326920;28;19975;-74
2022/04/11 10:45:59;;;;;;;;;;;;;;;9.39;44.24;99701.53;8326700;28;19976;-75
2022/04/11 10:50:04;;;;;;;;;;;;;;;9.73;45.16;99696.78;8326772;28;20026;-75
2022/04/11 10:54:15;;;;;;;;;;;;;;;9.30;42.72;99719.41;8293466;28;20014;-72
2022/04/11 10:58:42;;;;;;;;;;;;;;;8.79;44.20;99698.31;8326348;28;19976;-72
2022/04/11 11:02:52;;;;;;;;;;;;;;;8.63;45.59;99712.97;8321734;28;19975;-72
2022/04/11 11:07:11;;;;;;;;;;;;;;;8.51;45.12;99711.75;8332285;28;19975;-71
2022/04/11 11:11:20;;;;;;;;;;;;;;;8.52;44.61;99714.13;8395637;28;19999;-72
2022/04/11 11:15:24;;;;;;;;;;;;;;;8.87;45.44;99700.41;8395918;28;20033;-72
2022/04/11 11:19:25;;;;;;;;;;;;;;;9.64;43.76;99708.50;8395751;28;20474;-72
2022/04/11 11:23:26;;;;;;;;;;;;;;;10.01;43.14;99680.78;8410357;28;20085;-72
2022/04/11 11:27:28;;;;;;;;;;;;;;;10.13;39.83;99683.88;8359988;28;19975;-73
2022/04/11 11:31:28;;;;;;;;;;;;;;;9.94;39.83;99680.38;8407778;28;19998;-73
2022/04/11 11:35:29;;;;;;;;;;;;;;;10.20;40.57;99673.56;8407646;28;20537;-73
2022/04/11 11:39:30;;;;;;;;;;;;;;;9.79;41.55;99667.06;8424922;28;20042;-72
2022/04/11 11:43:31;;;;;;;;;;;;;;;9.25;42.28;99658.25;8424417;28;20056;-72
2022/04/11 11:47:32;;;;;;;;;;;;;;;9.19;42.98;99680.19;8424401;28;19974;-72
2022/04/11 11:51:33;;;;;;;;;;;;;;;9.17;43.93;99676.94;8423486;28;20369;-72
2022/04/11 11:55:34;;;;;;;;;;;;;;;9.17;43.95;99671.56;8408140;28;20065;-72
2022/04/11 11:59:45;;;;;;;;;;;;;;;9.20;43.47;99671.00;8424137;28;20443;-72
2022/04/11 12:08:05;;;;;;;;;;;;;;;9.74;43.06;99666.03;8409374;28;20077;-75
2022/04/11 12:12:06;;;;;;;;;;;;;;;10.40;42.58;99651.66;8394933;28;20077;-74
2022/04/11 12:16:08;;;;;;;;;;;;;;;10.82;40.68;99655.28;8394510;28;20010;-74
2022/04/11 12:20:10;;;;;;;;;;;;;;;11.01;42.03;99658.72;8394593;28;20087;-74
2022/04/11 12:24:14;;;;;;;;;;;;;;;10.65;41.23;99657.72;8394711;28;19987;-75
2022/04/11 12:28:15;;;;;;;;;;;;;;;10.03;42.63;99657.03;8392494;28;20034;-75
2022/04/11 12:32:16;;;;;;;;;;;;;;;9.44;43.84;99666.41;8392127;28;19997;-75
2022/04/11 12:36:22;;;;;;;;;;;;;;;9.07;45.04;99655.50;8394557;28;20065;-74
2022/04/11 12:40:39;;;;;;;;;;;;;;;9.02;46.18;99647.47;8394358;28;19975;-75
2022/04/11 12:44:40;;;;;;;;;;;;;;;8.87;45.33;99661.91;8393128;28;20005;-75
2022/04/11 12:48:57;;;;;;;;;;;;;;;8.89;45.92;99649.75;8394259;28;20373;-76
2022/04/11 12:52:58;;;;;;;;;;;;;;;9.06;44.71;99643.13;8394236;28;20105;-75
2022/04/11 12:57:00;;;;;;;;;;;;;;;9.32;44.87;99636.34;8394173;28;20070;-75
2022/04/11 13:01:01;;;;;;;;;;;;;;;9.49;44.67;99634.00;8396282;28;20013;-75
2022/04/11 13:05:12;;;;;;;;;;;;;;;9.82;43.02;99628.72;8400577;28;20488;-75
2022/04/11 13:09:14;;;;;;;;;;;;;;;10.43;40.82;99615.94;8400177;28;19995;-75
2022/04/11 13:13:16;;;;;;;;;;;;;;;10.52;40.19;99616.88;8380920;28;20462;-75
2022/04/11 13:21:36;;;;;;;;;;;;;;;10.70;39.06;99617.13;8380649;28;19979;-75
2022/04/11 13:25:37;;;;;;;;;;;;;;;10.44;39.68;99609.47;8398457;28;20489;-75
2022/04/11 13:29:38;;;;;;;;;;;;;;;10.70;40.01;99595.50;8398264;28;20058;-75
2022/04/11 13:33:38;;;;;;;;;;;;;;;11.03;39.54;99594.38;8396835;28;19991;-72
2022/04/11 13:37:40;;;;;;;;;;;;;;;10.97;40.56;99600.97;8399414;28;19975;-73
2022/04/11 13:41:40;;;;;;;;;;;;;;;12.90;37.04;99584.66;8396953;28;19974;-72
2022/04/11 13:45:41;;;;;;;;;;;;;;;15.19;35.99;99584.53;8399384;28;19982;-74
2022/04/11 13:49:43;;;;;;;;;;;;;;;16.71;30.55;99594.97;8398888;28;20061;-73
2022/04/11 13:53:46;;;;;;;;;;;;;;;16.82;29.16;99579.75;8398482;28;19998;-73
2022/04/11 13:57:47;;;;;;;;;;;;;;;14.61;31.68;99596.91;8398562;28;20358;-73
2022/04/11 14:01:50;;;;;;;;;;;;;;;12.88;35.01;99586.09;8398604;28;19985;-72
2022/04/11 14:05:50;;;;;;;;;;;;;;;12.97;36.09;99582.28;8413138;28;20422;-72
2022/04/11 14:09:56;;;;;;;;;;;;;;;13.15;35.55;99571.56;8412073;28;20096;-73
2022/04/11 14:13:57;;;;;;;;;;;;;;;12.85;35.85;99582.06;8397105;28;19991;-73
2022/04/11 14:17:58;;;;;;;;;;;;;;;12.65;35.09;99574.47;8398051;28;19975;-74
2022/04/11 14:21:59;;;;;;;;;;;;;;;13.18;34.33;99576.34;8397744;28;20005;-73
2022/04/11 14:25:59;;;;;;;;;;;;;;;13.53;33.97;99586.19;8395864;28;20011;-73
2022/04/11 14:30:00;;;;;;;;;;;;;;;13.93;31.35;99576.81;8397465;28;19975;-73
2022/04/11 14:34:04;;;;;;;;;;;;;;;12.57;32.60;99572.53;8397584;28;19990;-73
2022/04/11 14:38:04;;;;;;;;;;;;;;;12.77;32.95;99571.19;8411928;28;19975;-73
2022/04/11 14:42:05;;;;;;;;;;;;;;;13.27;32.47;99569.81;8397284;28;20342;-73
2022/04/11 14:46:09;;;;;;;;;;;;;;;14.84;31.13;99572.22;8397350;28;20070;-73
2022/04/11 14:50:10;;;;;;;;;;;;;;;14.08;31.67;99566.56;8396774;28;20123;-73
2022/04/11 14:54:11;;;;;;;;;;;;;;;12.45;34.19;99559.56;8396538;28;19991;-72
2022/04/11 14:58:13;;;;;;;;;;;;;;;11.84;35.53;99554.84;8394139;28;19971;-72
2022/04/11 15:02:14;;;;;;;;;;;;;;;11.43;36.91;99555.69;8396715;28;19971;-73
2022/04/11 15:06:19;;;;;;;;;;;;;;;11.14;36.80;99557.94;8396334;28;20069;-73
2022/04/11 15:10:19;;;;;;;;;;;;;;;10.97;38.03;99557.72;8377348;28;20442;-72
2022/04/11 15:14:20;;;;;;;;;;;;;;;10.79;37.65;99550.50;8372206;28;20032;-73
2022/04/11 15:18:21;;;;;;;;;;;;;;;10.60;37.13;99550.59;8395585;28;19975;-73
2022/04/11 15:22:27;;;;;;;;;;;;;;;10.46;37.76;99553.28;8395366;28;20304;-73
2022/04/11 15:26:31;;;;;;;;;;;;;;;10.42;38.41;99557.63;8384162;28;19982;-73
2022/04/11 15:30:32;;;;;;;;;;;;;;;10.36;38.13;99547.25;8396194;28;20049;-72
2022/04/11 15:34:35;;;;;;;;;;;;;;;10.39;37.90;99541.25;8396465;28;19994;-73
2022/04/11 15:38:36;;;;;;;;;;;;;;;10.42;38.39;99546.84;8396720;28;20478;-72
2022/04/11 15:42:37;;;;;;;;;;;;;;;10.40;38.23;99549.06;8410179;28;19974;-73
2022/04/11 15:46:38;;;;;;;;;;;;;;;10.34;38.86;99544.03;8395633;28;20411;-73
2022/04/11 15:50:40;;;;;;;;;;;;;;;10.29;39.00;99542.22;8394403;28;20029;-73
2022/04/11 15:54:43;;;;;;;;;;;;;;;10.36;39.21;99537.25;8394252;28;19971;-73
2022/04/11 15:58:44;;;;;;;;;;;;;;;10.49;38.86;99531.06;8381662;28;20133;-73
2022/04/11 16:02:45;;;;;;;;;;;;;;;10.70;39.41;99541.47;8379384;28;19971;-73
2022/04/11 16:06:46;;;;;;;;;;;;;;;11.78;38.03;99540.63;8393337;28;19978;-73
2022/04/11 16:10:47;;;;;;;;;;;;;;;11.79;36.32;99530.59;8391944;28;19987;-73
2022/04/11 16:14:48;;;;;;;;;;;;;;;11.19;36.88;99532.69;8393848;28;20010;-73
2022/04/11 16:18:49;;;;;;;;;;;;;;;10.97;36.30;99533.41;8399066;28;19967;-72
2022/04/11 16:22:50;;;;;;;;;;;;;;;10.71;36.43;99526.88;8394671;28;19979;-72
2022/04/11 16:26:51;;;;;;;;;;;;;;;10.51;36.96;99534.28;8402499;28;19979;-73
2022/04/11 16:30:51;;;;;;;;;;;;;;;10.49;37.58;99531.06;8423064;28;19990;-73
2022/04/11 16:34:52;;;;;;;;;;;;;;;10.30;37.86;99522.22;8390170;28;20002;-73
2022/04/11 16:38:54;;;;;;;;;;;;;;;10.10;37.68;99527.91;8399425;28;20434;-74
2022/04/11 16:42:54;;;;;;;;;;;;;;;9.83;38.55;99528.63;8397092;28;19971;-73
2022/04/11 16:46:55;;;;;;;;;;;;;;;9.62;40.05;99528.13;8410895;28;20006;-74
2022/04/11 16:50:58;;;;;;;;;;;;;;;9.42;40.85;99533.78;8399725;28;19975;-73
2022/04/11 16:54:59;;;;;;;;;;;;;;;9.22;42.25;99539.47;8384526;28;19993;-74
2022/04/11 16:59:00;;;;;;;;;;;;;;;9.02;43.40;99534.31;8393974;28;19994;-73
2022/04/11 17:03:05;;;;;;;;;;;;;;;8.81;45.10;99529.19;8399575;28;20356;-74
2022/04/11 17:07:06;;;;;;;;;;;;;;;8.59;45.94;99536.16;8398893;28;20054;-74
2022/04/11 17:11:08;;;;;;;;;;;;;;;8.40;47.15;99538.78;8405343;28;19991;-73
2022/04/11 17:18:30;;;;;;;;;;;;;;;8.21;47.01;99541.31;8434174;28;19970;-73
2022/04/11 17:19:30;;;;;;;;;;;;;;;8.10;47.88;99544.38;8407106;28;20390;-74
2022/04/11 17:23:31;;;;;;;;;;;;;;;7.97;48.59;99541.25;8416206;28;19967;-73
2022/04/11 17:27:32;;;;;;;;;;;;;;;7.77;49.91;99540.59;8429173;28;20505;-73
2022/04/11 17:31:33;;;;;;;;;;;;;;;7.67;50.28;99546.81;8427400;28;19982;-73
2022/04/11 17:35:34;;;;;;;;;;;;;;;7.55;51.90;99549.06;8433089;28;19970;-73
2022/04/11 17:39:35;;;;;;;;;;;;;;;7.42;53.04;99555.03;8426855;28;19974;-73
2022/04/11 17:43:36;;;;;;;;;;;;;;;7.36;53.39;99561.50;8425904;28;19970;-74
2022/04/11 17:47:39;;;;;;;;;;;;;;;7.25;54.50;99559.94;8397675;28;20453;-73
2022/04/11 17:51:40;;;;;;;;;;;;;;;7.15;55.68;99561.63;8398382;28;19994;-73
2022/04/11 17:55:41;;;;;;;;;;;;;;;7.07;56.66;99570.25;8398233;28;19975;-73
2022/04/11 17:59:41;;;;;;;;;;;;;;;6.99;56.95;99573.47;8397475;28;20011;-73
2022/04/11 18:03:43;;;;;;;;;;;;;;;6.89;57.49;99568.16;8398071;28;20331;-73
2022/04/11 18:07:44;;;;;;;;;;;;;;;6.76;57.46;99574.09;8396355;28;19994;-72
2022/04/11 18:11:45;;;;;;;;;;;;;;;6.62;57.32;99573.84;8360696;28;20094;-72
2022/04/11 18:15:46;;;;;;;;;;;;;;;6.50;57.88;99588.66;8398148;28;19975;-73
2022/04/11 18:19:47;;;;;;;;;;;;;;;6.43;57.40;99596.16;8398004;28;20503;-73
2022/04/11 18:23:48;;;;;;;;;;;;;;;6.22;58.48;99596.16;8397551;28;19979;-72
2022/04/11 18:27:49;;;;;;;;;;;;;;;6.06;59.25;99602.59;8412423;28;19974;-72
2022/04/11 18:31:50;;;;;;;;;;;;;;;5.95;58.78;99600.97;8397232;28;20117;-74
2022/04/11 18:35:52;;;;;;;;;;;;;;;5.83;59.71;99600.38;8397380;28;19985;-73
2022/04/11 18:39:54;;;;;;;;;;;;;;;5.75;59.49;99606.25;8394961;28;20029;-74
2022/04/11 18:44:18;;;;;;;;;;;;;;;5.67;59.54;99596.84;8395133;28;19978;-73
2022/04/11 18:48:18;;;;;;;;;;;;;;;5.64;59.35;99601.94;8396012;28;19971;-73
2022/04/11 18:52:21;;;;;;;;;;;;;;;5.57;59.79;99612.09;8396848;28;19987;-73
2022/04/11 18:56:22;;;;;;;;;;;;;;;5.41;60.67;99604.00;8396897;28;20032;-74
2022/04/11 19:00:23;;;;;;;;;;;;;;;5.28;61.06;99612.53;8394829;28;20017;-74
2022/04/11 19:04:25;;;;;;;;;;;;;;;5.20;60.95;99610.34;8398956;28;20427;-73
2022/04/11 19:08:26;;;;;;;;;;;;;;;5.09;61.52;99614.03;8393455;28;19967;-73
2022/04/11 19:12:27;;;;;;;;;;;;;;;5.01;61.66;99617.22;8395478;28;20476;-73
2022/04/11 19:16:28;;;;;;;;;;;;;;;4.92;62.26;99624.13;8395624;28;19971;-74
2022/04/11 19:20:30;;;;;;;;;;;;;;;4.83;62.81;99614.97;8393459;28;20022;-74
2022/04/11 19:24:32;;;;;;;;;;;;;;;4.72;63.04;99629.34;8393092;28;20464;-73
2022/04/11 19:28:36;;;;;;;;;;;;;;;4.58;63.43;99624.44;8394875;28;19971;-73
2022/04/11 19:32:38;;;;;;;;;;;;;;;4.49;63.78;99631.34;8391926;28;20023;-73
2022/04/11 19:36:40;;;;;;;;;;;;;;;4.37;64.18;99617.34;8407254;28;20058;-74
2022/04/11 19:40:42;;;;;;;;;;;;;;;4.20;64.61;99622.81;8397657;28;19968;-73
2022/04/11 19:44:44;;;;;;;;;;;;;;;4.03;64.92;99627.47;8405891;28;19971;-73
2022/04/11 19:53:07;;;;;;;;;;;;;;;3.71;65.47;99619.38;8394140;28;20453;-73
2022/04/11 19:57:11;;;;;;;;;;;;;;;3.57;65.67;99618.19;8327551;28;19979;-73
2022/04/11 20:01:15;;;;;;;;;;;;;;;3.47;65.91;99611.91;8394244;28;20085;-73
2022/04/11 20:05:18;;;;;;;;;;;;;;;3.35;66.49;99620.06;8393084;28;20460;-73
2022/04/11 20:09:21;;;;;;;;;;;;;;;3.31;66.22;99611.75;8392249;28;20026;-73
2022/04/11 20:13:46;;;;;;;;;;;;;;;3.16;66.88;99611.56;8333378;28;20018;-73
2022/04/11 20:17:50;;;;;;;;;;;;;;;3.03;66.71;99611.09;8351319;28;19975;-73
2022/04/11 20:21:53;;;;;;;;;;;;;;;2.87;66.83;99608.22;8304379;28;19990;-73
2022/04/11 20:25:55;;;;;;;;;;;;;;;2.70;66.80;99618.13;8353870;28;20046;-74
2022/04/11 20:30:03;;;;;;;;;;;;;;;2.54;66.79;99618.94;8351217;28;20009;-74
2022/04/11 20:34:07;;;;;;;;;;;;;;;2.55;66.71;99620.56;8355484;28;20038;-73
2022/04/11 20:38:10;;;;;;;;;;;;;;;2.53;66.60;99622.69;8355916;28;20074;-73
2022/04/11 20:42:12;;;;;;;;;;;;;;;2.49;66.27;99621.53;8349923;28;19983;-73
2022/04/11 20:46:13;;;;;;;;;;;;;;;2.43;66.88;99622.53;8333523;28;19976;-73
2022/04/11 20:50:14;;;;;;;;;;;;;;;2.43;66.56;99622.53;8350123;28;20490;-74
2022/04/11 20:58:41;;;;;;;;;;;;;;;2.33;66.59;99606.34;8382633;28;19975;-73
2022/04/11 21:02:42;;;;;;;;;;;;;;;2.26;66.93;99619.06;8392885;28;19971;-73
2022/04/11 21:06:45;;;;;;;;;;;;;;;2.22;66.75;99625.91;8374218;28;19967;-73
2022/04/11 21:10:46;;;;;;;;;;;;;;;2.09;67.63;99632.34;8412420;28;19991;-74
2022/04/11 21:14:49;;;;;;;;;;;;;;;1.98;67.61;99626.03;8392719;28;19986;-74
2022/04/11 21:18:50;;;;;;;;;;;;;;;1.93;67.34;99631.28;8393730;28;20098;-73
2022/04/11 21:22:54;;;;;;;;;;;;;;;1.87;68.09;99634.09;8394236;28;20007;-73
2022/04/11 21:26:55;;;;;;;;;;;;;;;1.80;68.83;99634.22;8398352;28;20489;-73
2022/04/11 21:30:56;;;;;;;;;;;;;;;1.75;68.63;99635.97;8398928;28;19978;-73